This is the latest recevied weather packets stored in our database for station/object DL5DI-H. If no packets are shown the sender has not sent any weather packets the latest 10 day(s).
| Time | Temp. | Humidity | Pressure | Rain* | Wind** | Luminosity | Snow |
|---|---|---|---|---|---|---|---|
| 1777400405 | 20.56° C | 34% | 1020.2 hPa | 0 mm | - | - | - |
| 1777399805 | 21.11° C | 33% | 1020 hPa | 0 mm | - | - | - |
| 1777399201 | 21.67° C | 33% | 1019.9 hPa | 0 mm | - | - | - |
| 1777398604 | 21.67° C | 33% | 1019.9 hPa | 0 mm | - | - | - |
| 1777398005 | 22.22° C | 32% | 1019.8 hPa | 0 mm | - | - | - |
| 1777397401 | 23.89° C | 31% | 1019.5 hPa | 0 mm | - | - | - |
| 1777396801 | 23.89° C | 31% | 1019.5 hPa | 0 mm | - | - | - |
| 1777396201 | 23.89° C | 31% | 1019.5 hPa | 0 mm | - | - | - |
| 1777395605 | 23.89° C | 31% | 1019.5 hPa | 0 mm | - | - | - |
| 1777395004 | 23.89° C | 31% | 1019.4 hPa | 0 mm | - | - | - |
| 1777394405 | 24.44° C | 31% | 1019.3 hPa | 0 mm | - | - | - |
| 1777393804 | 24.44° C | 31% | 1019.3 hPa | 0 mm | - | - | - |
| 1777393204 | 24.44° C | 31% | 1019.3 hPa | 0 mm | - | - | - |
| 1777392605 | 24.44° C | 31% | 1019.2 hPa | 0 mm | - | - | - |
| 1777392001 | 24.44° C | 31% | 1019.2 hPa | 0 mm | - | - | - |
| 1777391405 | 23.89° C | 31% | 1019.1 hPa | 0 mm | - | - | - |
| 1777390801 | 23.89° C | 31% | 1019.4 hPa | 0 mm | - | - | - |
| 1777390201 | 23.89° C | 31% | 1019.4 hPa | 0 mm | - | - | - |
| 1777389001 | 23.89° C | 31% | 1019.4 hPa | 0 mm | - | - | - |
| 1777388405 | 23.89° C | 31% | 1019.4 hPa | 0 mm | - | - | - |
| 1777387805 | 23.89° C | 31% | 1019.3 hPa | 0 mm | - | - | - |
| 1777387201 | 24.44° C | 32% | 1019.4 hPa | 0 mm | - | - | - |
| 1777386605 | 24.44° C | 32% | 1019.5 hPa | 0 mm | - | - | - |
| 1777386005 | 24.44° C | 32% | 1019.5 hPa | 0 mm | - | - | - |
| 1777385401 | 23.89° C | 33% | 1019.5 hPa | 0 mm | - | - | - |
* Rain latest hour (hover to see other rain measurements)
** Current wind speed in m/s (hover to see current wind gust speed)